createdAt,value
2023-03-06T00:02:45.836Z,4.90
2023-03-06T00:05:31.007Z,4.80
2023-03-06T00:08:16.589Z,4.80
2023-03-06T00:11:02.078Z,4.70
2023-03-06T00:13:47.665Z,4.70
2023-03-06T00:16:33.408Z,4.70
2023-03-06T00:19:18.790Z,4.70
2023-03-06T00:22:04.464Z,4.60
2023-03-06T00:24:53.875Z,4.60
2023-03-06T00:27:39.313Z,4.60
2023-03-06T00:30:25.330Z,4.60
2023-03-06T00:33:11.288Z,4.60
2023-03-06T00:35:56.780Z,4.60
2023-03-06T00:38:42.256Z,4.50
2023-03-06T00:41:27.712Z,4.50
2023-03-06T00:44:13.368Z,4.50
2023-03-06T00:46:59.228Z,4.50
2023-03-06T00:49:45.518Z,4.50
2023-03-06T00:52:31.269Z,4.50
2023-03-06T00:55:16.609Z,4.50
2023-03-06T00:58:02.127Z,4.50
2023-03-06T01:00:47.789Z,4.50
2023-03-06T01:03:33.259Z,4.50
2023-03-06T01:06:19.057Z,4.50
2023-03-06T01:09:04.887Z,4.50
2023-03-06T01:11:50.452Z,4.40
2023-03-06T01:14:36.221Z,4.40
2023-03-06T01:17:21.661Z,4.40
2023-03-06T01:20:07.826Z,4.50
2023-03-06T01:22:55.441Z,4.50
2023-03-06T01:25:41.126Z,4.50
2023-03-06T01:28:27.231Z,4.40
2023-03-06T01:31:14.650Z,4.40
2023-03-06T01:33:59.931Z,4.40
2023-03-06T01:36:45.536Z,4.40
2023-03-06T01:39:31.616Z,4.40
2023-03-06T01:42:17.155Z,4.50
2023-03-06T01:45:31.655Z,4.50
2023-03-06T01:48:20.059Z,4.60
2023-03-06T01:51:05.896Z,4.60
2023-03-06T01:53:53.378Z,4.60
2023-03-06T01:56:43.216Z,4.50
2023-03-06T01:59:29.508Z,4.50
2023-03-06T02:02:16.280Z,4.40
2023-03-06T02:05:04.003Z,4.50
2023-03-06T02:07:51.173Z,4.50
2023-03-06T02:10:36.955Z,4.40
2023-03-06T02:13:22.674Z,4.50
2023-03-06T02:16:12.121Z,4.50
2023-03-06T02:19:00.881Z,4.60
2023-03-06T02:21:46.456Z,4.60
2023-03-06T02:24:48.053Z,4.60
2023-03-06T02:27:33.988Z,4.60
2023-03-06T02:30:19.846Z,4.60
2023-03-06T02:33:06.392Z,4.60
2023-03-06T02:35:59.057Z,4.60
2023-03-06T02:38:50.036Z,4.60
2023-03-06T02:41:36.733Z,4.50
2023-03-06T02:44:24.199Z,4.50
2023-03-06T02:47:09.583Z,4.50
2023-03-06T02:49:55.295Z,4.50
2023-03-06T02:52:41.076Z,4.50
2023-03-06T02:55:26.749Z,4.50
2023-03-06T02:58:14.374Z,4.40
2023-03-06T03:00:59.732Z,4.50
2023-03-06T03:03:45.863Z,4.50
2023-03-06T03:06:33.061Z,4.50
2023-03-06T03:09:19.068Z,4.40
2023-03-06T03:12:07.029Z,4.50
2023-03-06T03:14:52.726Z,4.40
2023-03-06T03:17:39.342Z,4.40
2023-03-06T03:20:24.860Z,4.40
2023-03-06T03:23:10.277Z,4.40
2023-03-06T03:25:55.980Z,4.40
2023-03-06T03:28:41.948Z,4.40
2023-03-06T03:31:28.934Z,4.30
2023-03-06T03:34:14.710Z,4.30
2023-03-06T03:37:01.557Z,4.40
2023-03-06T03:39:47.254Z,4.40
2023-03-06T03:42:33.429Z,4.40
2023-03-06T03:45:19.547Z,4.40
2023-03-06T03:48:05.207Z,4.40
2023-03-06T03:50:51.162Z,4.40
2023-03-06T03:53:38.498Z,4.40
2023-03-06T03:56:25.632Z,4.40
2023-03-06T03:59:20.966Z,4.40
2023-03-06T04:02:21.826Z,4.40
2023-03-06T04:05:18.868Z,4.40
2023-03-06T04:08:05.536Z,4.40
2023-03-06T04:10:53.106Z,4.40
2023-03-06T04:13:38.859Z,4.50
2023-03-06T04:16:24.954Z,4.40
2023-03-06T04:19:11.673Z,4.40
2023-03-06T04:21:58.014Z,4.40
2023-03-06T04:24:43.697Z,4.40
2023-03-06T04:27:29.208Z,4.40
2023-03-06T04:30:14.607Z,4.40
2023-03-06T04:33:00.543Z,4.40
2023-03-06T04:35:46.075Z,4.40
2023-03-06T04:38:36.978Z,4.40
2023-03-06T04:41:24.553Z,4.30
2023-03-06T04:44:09.989Z,4.30
2023-03-06T04:46:55.485Z,4.30
2023-03-06T04:49:41.197Z,4.20
2023-03-06T04:52:26.712Z,4.20
2023-03-06T04:55:14.980Z,4.20
2023-03-06T04:58:00.453Z,4.20
2023-03-06T05:00:46.150Z,4.20
2023-03-06T05:03:32.273Z,4.30
2023-03-06T05:06:17.888Z,4.30
2023-03-06T05:09:03.539Z,4.30
2023-03-06T05:11:49.172Z,4.30
2023-03-06T05:14:34.578Z,4.30
2023-03-06T05:17:20.115Z,4.30
2023-03-06T05:20:07.867Z,4.30
2023-03-06T05:22:53.513Z,4.30
2023-03-06T05:25:40.509Z,4.30
2023-03-06T05:28:27.015Z,4.30
2023-03-06T05:31:12.539Z,4.30
2023-03-06T05:33:58.872Z,4.30
2023-03-06T05:36:44.584Z,4.30
2023-03-06T05:39:30.265Z,4.30
2023-03-06T05:42:15.504Z,4.30
2023-03-06T05:45:02.265Z,4.30
2023-03-06T05:47:48.165Z,4.30
2023-03-06T05:50:34.125Z,4.30
2023-03-06T05:53:21.231Z,4.30
2023-03-06T05:56:11.121Z,4.20
2023-03-06T05:58:56.904Z,4.20
2023-03-06T06:01:42.497Z,4.10
2023-03-06T06:04:29.337Z,4.20
2023-03-06T06:07:16.540Z,4.20
2023-03-06T06:10:03.823Z,4.20
2023-03-06T06:12:49.874Z,4.20
2023-03-06T06:15:35.545Z,4.20
2023-03-06T06:18:21.354Z,4.20
2023-03-06T06:21:09.014Z,4.20
2023-03-06T06:23:54.682Z,4.20
2023-03-06T06:26:41.130Z,4.20
2023-03-06T06:29:28.312Z,4.20
2023-03-06T06:32:13.836Z,4.20
2023-03-06T06:34:59.588Z,4.20
2023-03-06T06:37:45.255Z,4.30
2023-03-06T06:40:30.677Z,4.30
2023-03-06T06:43:16.323Z,4.30
2023-03-06T06:46:23.076Z,4.30
2023-03-06T06:49:07.947Z,4.30
2023-03-06T06:51:53.900Z,4.30
2023-03-06T06:54:39.467Z,4.20
2023-03-06T06:57:25.065Z,4.30
2023-03-06T07:00:14.243Z,4.30
2023-03-06T07:03:00.275Z,4.20
2023-03-06T07:05:45.713Z,4.20
2023-03-06T07:08:31.620Z,4.30
2023-03-06T07:11:18.821Z,4.30
2023-03-06T07:14:04.452Z,4.30
2023-03-06T07:16:50.521Z,4.30
2023-03-06T07:19:38.622Z,4.30
2023-03-06T07:22:24.467Z,4.30
2023-03-06T07:25:10.482Z,4.40
2023-03-06T07:27:56.292Z,4.40
2023-03-06T07:30:42.517Z,4.40
2023-03-06T07:33:28.168Z,4.40
2023-03-06T07:36:14.253Z,4.50
2023-03-06T07:38:59.908Z,4.50
2023-03-06T07:41:45.483Z,4.50
2023-03-06T07:44:31.850Z,4.50
2023-03-06T07:47:17.575Z,4.50
2023-03-06T07:50:05.412Z,4.60
2023-03-06T07:52:52.212Z,4.60
2023-03-06T07:55:40.394Z,4.60
2023-03-06T07:58:26.707Z,4.60
2023-03-06T08:01:17.973Z,4.70
2023-03-06T08:04:04.501Z,4.70
2023-03-06T08:06:50.467Z,4.70
2023-03-06T08:09:36.516Z,4.70
2023-03-06T08:12:22.701Z,4.70
2023-03-06T08:15:11.076Z,4.50
2023-03-06T08:17:56.636Z,4.80
2023-03-06T08:20:42.197Z,4.90
2023-03-06T08:23:27.777Z,5.00
2023-03-06T08:26:19.342Z,5.10
2023-03-06T08:29:04.985Z,5.10
2023-03-06T08:31:50.816Z,5.10
2023-03-06T08:34:36.698Z,5.30
2023-03-06T08:37:22.643Z,5.40
2023-03-06T08:40:09.287Z,5.50
2023-03-06T08:42:54.765Z,5.60
2023-03-06T08:45:40.443Z,5.70
2023-03-06T08:48:26.018Z,5.80
2023-03-06T08:51:11.736Z,6.00
2023-03-06T08:53:58.016Z,6.20
2023-03-06T08:56:43.802Z,6.40
2023-03-06T08:59:29.407Z,6.50
2023-03-06T09:02:15.305Z,6.70
2023-03-06T09:05:01.403Z,6.80
2023-03-06T09:07:47.060Z,6.70
2023-03-06T09:10:32.658Z,6.70
2023-03-06T09:13:18.303Z,6.60
2023-03-06T09:16:04.050Z,6.60
2023-03-06T09:18:52.756Z,6.60
2023-03-06T09:21:38.839Z,6.60
2023-03-06T09:24:25.020Z,6.80
2023-03-06T09:27:10.947Z,6.90
2023-03-06T09:29:57.346Z,7.20
2023-03-06T09:32:43.347Z,7.40
2023-03-06T09:35:28.763Z,7.60
2023-03-06T09:38:14.419Z,7.80
2023-03-06T09:41:11.781Z,8.00
2023-03-06T09:44:09.028Z,8.10
2023-03-06T09:47:16.960Z,8.00
2023-03-06T09:50:11.704Z,7.80
2023-03-06T09:53:15.676Z,7.70
2023-03-06T09:56:10.109Z,7.70
2023-03-06T09:59:02.563Z,7.70
2023-03-06T10:02:22.173Z,7.60
2023-03-06T10:05:15.326Z,7.70
2023-03-06T10:08:24.242Z,7.80
2023-03-06T10:11:12.173Z,7.90
2023-03-06T10:14:49.149Z,7.80
2023-03-06T10:17:38.597Z,7.80
2023-03-06T10:20:33.753Z,7.90
2023-03-06T10:23:42.777Z,8.00
2023-03-06T10:26:52.467Z,8.10
2023-03-06T10:30:09.133Z,8.10
2023-03-06T10:33:01.638Z,8.00
2023-03-06T10:35:53.378Z,8.00
2023-03-06T10:38:38.907Z,7.90
2023-03-06T10:41:35.202Z,7.90
2023-03-06T10:44:23.462Z,8.10
2023-03-06T10:47:36.891Z,8.00
2023-03-06T10:50:29.020Z,8.00
2023-03-06T10:53:25.126Z,8.10
2023-03-06T10:56:10.394Z,8.10
2023-03-06T10:59:31.318Z,7.90
2023-03-06T11:02:33.270Z,8.10
2023-03-06T11:05:20.638Z,8.10
2023-03-06T11:08:22.507Z,7.80
2023-03-06T11:11:09.637Z,7.70
2023-03-06T11:13:59.284Z,7.80
2023-03-06T11:16:53.663Z,7.80
2023-03-06T11:19:39.062Z,7.80
2023-03-06T11:22:24.725Z,8.00
2023-03-06T11:25:14.905Z,8.00
2023-03-06T11:28:24.894Z,8.00
2023-03-06T11:31:15.390Z,7.90
2023-03-06T11:34:40.237Z,7.80
2023-03-06T11:37:26.005Z,7.90
2023-03-06T11:40:11.569Z,8.00
2023-03-06T11:43:17.391Z,8.10
2023-03-06T11:46:27.488Z,8.20
2023-03-06T11:49:24.135Z,8.30
2023-03-06T11:52:25.448Z,8.20
2023-03-06T11:55:16.426Z,8.40
2023-03-06T11:58:33.294Z,8.70
2023-03-06T12:01:31.080Z,8.90
2023-03-06T12:04:30.768Z,9.00
2023-03-06T12:08:03.326Z,9.00
2023-03-06T12:10:58.200Z,9.00
2023-03-06T12:13:46.721Z,9.10
2023-03-06T12:16:52.551Z,9.00
2023-03-06T12:19:46.883Z,8.90
2023-03-06T12:22:57.526Z,8.80
2023-03-06T12:26:09.296Z,8.90
2023-03-06T12:29:16.507Z,8.80
2023-03-06T12:32:25.939Z,8.70
2023-03-06T12:35:36.240Z,8.90
2023-03-06T12:38:33.881Z,8.70
2023-03-06T12:41:27.504Z,8.70
2023-03-06T12:44:42.504Z,8.90
2023-03-06T12:47:31.426Z,8.60
2023-03-06T12:50:32.030Z,8.50
2023-03-06T12:53:29.661Z,8.30
2023-03-06T12:56:18.239Z,8.30
2023-03-06T12:59:03.940Z,8.20
2023-03-06T13:02:17.939Z,8.00
2023-03-06T13:05:24.774Z,7.80
2023-03-06T13:08:42.661Z,7.60
2023-03-06T13:11:36.224Z,7.50
2023-03-06T13:14:34.264Z,7.60
2023-03-06T13:17:24.399Z,7.40
2023-03-06T13:20:16.260Z,7.40
2023-03-06T13:23:33.241Z,7.30
2023-03-06T13:26:25.196Z,7.30
2023-03-06T13:29:38.727Z,7.30
2023-03-06T13:32:30.313Z,7.20
2023-03-06T13:35:32.212Z,7.30
2023-03-06T13:38:36.754Z,7.40
2023-03-06T13:41:22.654Z,7.30
2023-03-06T13:44:23.289Z,7.40
2023-03-06T13:47:32.911Z,7.40
2023-03-06T13:50:40.105Z,7.40
2023-03-06T13:53:50.591Z,7.30
2023-03-06T13:56:54.526Z,7.30
2023-03-06T14:00:11.715Z,7.20
2023-03-06T14:03:34.656Z,7.30
2023-03-06T14:06:35.587Z,7.30
2023-03-06T14:09:29.077Z,7.40
2023-03-06T14:12:20.156Z,7.50
2023-03-06T14:15:35.901Z,7.60
2023-03-06T14:18:41.749Z,7.60
2023-03-06T14:21:45.527Z,7.70
2023-03-06T14:24:41.066Z,7.70
2023-03-06T14:27:49.123Z,7.50
2023-03-06T14:30:34.612Z,7.50
2023-03-06T14:33:34.709Z,7.50
2023-03-06T14:36:23.478Z,7.50
2023-03-06T14:39:21.213Z,7.30
2023-03-06T14:42:18.184Z,7.30
2023-03-06T14:45:24.827Z,7.30
2023-03-06T14:48:15.341Z,7.30
2023-03-06T14:51:02.694Z,7.40
2023-03-06T14:53:50.482Z,7.50
2023-03-06T14:56:41.588Z,7.50
2023-03-06T14:59:30.552Z,7.50
2023-03-06T15:02:24.048Z,7.40
2023-03-06T15:05:30.597Z,7.20
2023-03-06T15:08:21.553Z,7.20
2023-03-06T15:11:07.905Z,7.30
2023-03-06T15:14:02.085Z,7.40
2023-03-06T15:16:47.921Z,7.60
2023-03-06T15:19:40.591Z,7.70
2023-03-06T15:22:41.994Z,7.70
2023-03-06T15:25:30.920Z,7.60
2023-03-06T15:28:30.688Z,7.60
2023-03-06T15:31:21.075Z,7.60
2023-03-06T15:34:09.588Z,7.60
2023-03-06T15:36:57.654Z,7.60
2023-03-06T15:39:43.782Z,7.60
2023-03-06T15:42:33.811Z,7.40
2023-03-06T15:45:22.084Z,7.40
2023-03-06T15:48:16.948Z,7.40
2023-03-06T15:51:03.362Z,7.40
2023-03-06T15:53:49.367Z,7.30
2023-03-06T15:56:40.103Z,7.30
2023-03-06T15:59:27.904Z,7.20
2023-03-06T16:02:19.125Z,7.20
2023-03-06T16:05:15.142Z,7.10
2023-03-06T16:08:00.735Z,7.10
2023-03-06T16:10:47.009Z,7.10
2023-03-06T16:13:33.918Z,7.00
2023-03-06T16:16:24.419Z,7.00
2023-03-06T16:19:25.289Z,7.00
2023-03-06T16:22:11.980Z,7.00
2023-03-06T16:24:57.482Z,7.00
2023-03-06T16:27:55.563Z,7.00
2023-03-06T16:30:43.257Z,6.90
2023-03-06T16:33:28.925Z,7.00
2023-03-06T16:36:23.241Z,7.00
2023-03-06T16:39:17.191Z,7.00
2023-03-06T16:42:02.584Z,7.00
2023-03-06T16:44:48.214Z,7.00
2023-03-06T16:47:33.642Z,7.00
2023-03-06T16:50:31.209Z,7.00
2023-03-06T16:53:17.573Z,7.00
2023-03-06T16:56:03.076Z,6.90
2023-03-06T16:58:49.190Z,6.90
2023-03-06T17:01:34.989Z,6.90
2023-03-06T17:04:21.006Z,6.90
2023-03-06T17:07:06.738Z,6.80
2023-03-06T17:09:52.265Z,6.80
2023-03-06T17:12:38.388Z,6.80
2023-03-06T17:15:24.263Z,6.80
2023-03-06T17:18:09.817Z,6.80
2023-03-06T17:20:55.924Z,6.80
2023-03-06T17:23:42.492Z,6.80
2023-03-06T17:26:28.328Z,6.80
2023-03-06T17:29:14.348Z,6.70
2023-03-06T17:32:00.161Z,6.70
2023-03-06T17:34:45.965Z,6.70
2023-03-06T17:37:32.185Z,6.70
2023-03-06T17:40:18.158Z,6.70
2023-03-06T17:43:04.326Z,6.60
2023-03-06T17:45:49.918Z,6.60
2023-03-06T17:48:36.548Z,6.50
2023-03-06T17:51:22.549Z,6.50
2023-03-06T17:54:08.130Z,6.50
2023-03-06T17:56:53.918Z,6.50
2023-03-06T17:59:39.374Z,6.40
2023-03-06T18:02:25.086Z,6.40
2023-03-06T18:05:11.573Z,6.40
2023-03-06T18:07:57.190Z,6.30
2023-03-06T18:10:43.525Z,6.30
2023-03-06T18:13:29.371Z,6.30
2023-03-06T18:16:18.574Z,6.20
2023-03-06T18:19:04.432Z,6.20
2023-03-06T18:21:49.787Z,6.20
2023-03-06T18:24:36.807Z,6.20
2023-03-06T18:27:22.750Z,6.20
2023-03-06T18:30:09.432Z,6.20
2023-03-06T18:32:55.396Z,6.20
2023-03-06T18:35:43.975Z,6.20
2023-03-06T18:38:29.472Z,6.10
2023-03-06T18:41:16.446Z,6.10
2023-03-06T18:44:02.338Z,6.10
2023-03-06T18:46:48.132Z,6.00
2023-03-06T18:49:33.902Z,6.00
2023-03-06T18:52:19.625Z,5.90
2023-03-06T18:55:05.492Z,5.90
2023-03-06T18:57:51.091Z,6.00
2023-03-06T19:00:36.742Z,6.10
2023-03-06T19:03:22.221Z,6.10
2023-03-06T19:06:13.388Z,6.10
2023-03-06T19:08:59.042Z,6.10
2023-03-06T19:11:46.801Z,6.10
2023-03-06T19:14:32.803Z,6.10
2023-03-06T19:17:18.553Z,6.00
2023-03-06T19:20:04.868Z,6.00
2023-03-06T19:22:50.977Z,5.90
2023-03-06T19:25:37.071Z,5.90
2023-03-06T19:28:22.556Z,5.90
2023-03-06T19:31:25.176Z,5.80
2023-03-06T19:34:11.115Z,5.80
2023-03-06T19:36:56.684Z,5.80
2023-03-06T19:39:43.445Z,5.80
2023-03-06T19:42:29.999Z,5.80
2023-03-06T19:45:15.924Z,5.80
2023-03-06T19:48:01.692Z,5.80
2023-03-06T19:50:47.656Z,5.70
2023-03-06T19:53:35.204Z,5.70
2023-03-06T19:56:23.792Z,5.70
2023-03-06T19:59:10.219Z,5.70
2023-03-06T20:01:55.909Z,5.70
2023-03-06T20:04:41.610Z,5.80
2023-03-06T20:07:27.524Z,5.80
2023-03-06T20:10:13.284Z,5.80
2023-03-06T20:12:59.016Z,5.70
2023-03-06T20:15:44.871Z,5.70
2023-03-06T20:18:30.329Z,5.60
2023-03-06T20:21:16.732Z,5.60
2023-03-06T20:24:03.692Z,5.60
2023-03-06T20:26:51.082Z,5.50
2023-03-06T20:29:37.072Z,5.50
2023-03-06T20:32:22.899Z,5.50
2023-03-06T20:35:08.738Z,5.50
2023-03-06T20:37:54.524Z,4.80
2023-03-06T20:40:41.880Z,5.50
2023-03-06T20:43:27.330Z,5.40
2023-03-06T20:46:13.850Z,5.40
2023-03-06T20:49:00.166Z,5.40
2023-03-06T20:51:45.897Z,5.40
2023-03-06T20:54:31.625Z,5.30
2023-03-06T20:57:17.235Z,5.30
2023-03-06T21:00:03.747Z,5.30
2023-03-06T21:02:49.416Z,5.30
2023-03-06T21:05:34.952Z,5.30
2023-03-06T21:08:20.475Z,5.30
2023-03-06T21:11:06.026Z,5.30
2023-03-06T21:13:53.280Z,5.30
2023-03-06T21:16:39.204Z,5.40
2023-03-06T21:19:25.414Z,5.30
2023-03-06T21:22:11.098Z,5.30
2023-03-06T21:24:56.787Z,5.30
2023-03-06T21:27:42.316Z,5.30
2023-03-06T21:30:29.320Z,5.00
2023-03-06T21:33:16.114Z,5.30
2023-03-06T21:36:02.099Z,5.30
2023-03-06T21:38:49.956Z,5.30
2023-03-06T21:41:35.706Z,5.30
2023-03-06T21:44:21.264Z,5.30
2023-03-06T21:47:06.805Z,5.30
2023-03-06T21:49:52.175Z,5.20
2023-03-06T21:52:38.080Z,5.20
2023-03-06T21:55:23.850Z,5.20
2023-03-06T21:58:09.546Z,5.20
2023-03-06T22:00:55.107Z,5.20
2023-03-06T22:03:41.058Z,5.20
2023-03-06T22:06:28.646Z,5.10
2023-03-06T22:09:16.230Z,5.10
2023-03-06T22:12:03.695Z,5.10
2023-03-06T22:14:49.216Z,5.00
2023-03-06T22:17:35.003Z,5.00
2023-03-06T22:20:20.776Z,5.10
2023-03-06T22:23:06.552Z,5.20
2023-03-06T22:25:52.179Z,5.30
2023-03-06T22:28:37.963Z,5.20
2023-03-06T22:31:25.230Z,5.20
2023-03-06T22:34:11.217Z,5.10
2023-03-06T22:36:56.933Z,5.20
2023-03-06T22:39:42.441Z,5.20
2023-03-06T22:42:28.690Z,5.20
2023-03-06T22:45:14.545Z,5.20
2023-03-06T22:48:10.652Z,5.60
2023-03-06T22:51:11.929Z,5.20
2023-03-06T22:53:58.243Z,5.10
2023-03-06T22:56:44.015Z,5.00
2023-03-06T22:59:29.645Z,4.90
2023-03-06T23:02:15.296Z,5.00
2023-03-06T23:05:01.090Z,4.70
2023-03-06T23:07:47.692Z,4.90
2023-03-06T23:10:39.852Z,5.00
2023-03-06T23:13:44.037Z,5.10
2023-03-06T23:16:48.499Z,4.90
2023-03-06T23:19:53.486Z,5.00
2023-03-06T23:22:57.692Z,5.10
2023-03-06T23:26:01.778Z,5.10
2023-03-06T23:28:48.202Z,5.10
2023-03-06T23:31:33.922Z,5.10
2023-03-06T23:34:19.488Z,4.90
2023-03-06T23:37:04.990Z,4.90
2023-03-06T23:39:50.730Z,4.90
2023-03-06T23:42:36.206Z,4.90
2023-03-06T23:45:22.111Z,5.00
2023-03-06T23:48:08.042Z,5.00
2023-03-06T23:50:54.330Z,5.00
2023-03-06T23:53:40.487Z,5.10
2023-03-06T23:56:27.901Z,5.00
2023-03-06T23:59:13.745Z,5.00
